Monroe County, IN

2:27 AM EST on March 01, 2015 (GMT -0500)
Columbus Municipal | Change Station
CLOSE
Current Station
Airport
Location: Columbus,
Elevation: 656 ft
Nearby Weather Stations
Active Advisory: Winter Weather Advisory Active Notice: Local Storm Report

Elev 656 ft 39.26 °N, 85.90 °W | Updated 8 hours ago

Snow
Snow
28 °F
Feels Like 28 °F
N
4
Wind Variable Wind from SE
Gusts 7 mph

Today
High -- | Low -- °F
--% Chance of Precip.
Yesterday
High -- | Low -- °F
Precip. -- in
7:19 AM 6:38 PM
Waxing Gibbous, 83% visible
Pressure 30.55 in
Visibility 10.0 miles
Clouds Overcast 7500 ft
Dew Point 24 °F
Humidity 85%
Rainfall 0.00 in
Snow Depth Not available.
UV 0 out of 12
Pollen .60 out of 12
Air Quality Not available.
Flu Activity Not available.
METAR KBAK 282250Z 08005KT 10SM OVC075 M03/M13 A3055

More Conditions Fewer Conditions

Pressure 30.55 in
Visibility 10.0 miles
Clouds Overcast 7500 ft
Dew Point 24 °F
Humidity 85%
Rainfall 0.00 in
Snow Depth Not available.
UV 0 out of 12
Pollen .60 out of 12
Air Quality Not available.
Flu Activity Not available.
METAR KBAK 282250Z 08005KT 10SM OVC075 M03/M13 A3055

More Conditions Fewer Conditions

10-Day Weather Forecast

Almanac

Astronomy

Mar. 01, 2015 Rise Set
Actual Time
Civil Twilight
Nautical Twilight
Astronomical Twilight
Moon
Length of Visible Light
Length of Day
Tomorrow will be .
, % of the Moon is Illuminated

Today's Extremes

State Highs State Lows

Community

WunderPhotos

Upload Photos

1,801,347 photos uploaded!

WunderBlogs® & News

Nearby

Air Quality

  Air Quality AQ Index Pollutant
Not available.

Snow Depth

Station Depth Elevation

Earthquake Activity

City Distance Mag. Time & Date
Minimum magnitude displayed is 2.5.

Coastal Water Temperatures

Place Temperature

Nearby Weather Stations

Winter Weather Advisory
Statement as of 8:21 PM EST on February 28, 2015

... Winter Weather Advisory remains in effect until 7 PM EST
Sunday...

A Winter Weather Advisory remains in effect until 7 PM EST
Sunday.

* Timing... accumulating snow beginning this evening. Snow may mix
with freezing rain very late tonight. A mix of snow... freezing
rain... and rain expected during the day on Sunday.

* Main impact... hazardous travel conditions due to accumulating
snow and ice.

* Other impacts... reduced visibility in areas of heavier snow.

Precautionary/preparedness actions...

A Winter Weather Advisory means that periods of snow... sleet... or
freezing rain will cause travel difficulties. Be prepared for
slippery roads and limited visibilities... and use caution while
driving.